Time;durP1;ratioP1;P1;durP2;ratioP2;P2;SDS_P1;SDS_P2;PMS_P1;PMS_P2;Temp;Humidity;BMP_temperature;BMP_pressure;BME280_temperature;BME280_humidity;BME280_pressure;Samples;Min_cycle;Max_cycle;Signal;HPM_P1;HPM_P2
2022/04/22 00:00:09;;;;;;;14.05;6.95;;;6.70;96.20;;;;;;5111533;28;20027;-82
2022/04/22 00:02:35;;;;;;;15.07;7.93;;;6.70;96.40;;;;;;5131720;28;20031;-84
2022/04/22 00:05:02;;;;;;;14.57;8.52;;;6.60;97.90;;;;;;5114033;28;20026;-83
2022/04/22 00:07:28;;;;;;;10.25;7.13;;;6.60;97.90;;;;;;5132443;28;20035;-83
2022/04/22 00:09:57;;;;;;;11.60;7.28;;;6.50;98.40;;;;;;5114317;28;20054;-84
2022/04/22 00:12:23;;;;;;;12.55;7.32;;;6.50;98.40;;;;;;5132982;28;20038;-84
2022/04/22 00:14:48;;;;;;;12.98;6.95;;;6.50;97.80;;;;;;5114612;28;20122;-83
2022/04/22 00:17:14;;;;;;;10.73;7.15;;;6.50;97.80;;;;;;5131655;28;20039;-83
2022/04/22 00:19:40;;;;;;;12.73;7.43;;;6.50;97.30;;;;;;5112856;28;20523;-83
2022/04/22 00:22:06;;;;;;;13.23;7.93;;;6.50;97.70;;;;;;5131210;28;20088;-83
2022/04/22 00:24:31;;;;;;;9.02;6.53;;;6.40;98.30;;;;;;5113641;28;20027;-83
2022/04/22 00:26:57;;;;;;;;;;;6.40;99.40;;;;;;5114333;28;20121;-84
2022/04/22 00:29:23;;;;;;;9.23;6.28;;;6.40;99.90;;;;;;5114174;27;20446;-84
2022/04/22 00:31:48;;;;;;;13.73;5.95;;;6.30;99.90;;;;;;5117774;27;20436;-85
2022/04/22 00:34:14;;;;;;;20.70;7.82;;;6.30;99.90;;;;;;5136735;27;20039;-85
2022/04/22 00:36:40;;;;;;;10.02;6.45;;;6.30;99.90;;;;;;5118080;27;20019;-85
2022/04/22 00:39:05;;;;;;;;;;;6.30;99.90;;;;;;5118272;27;20026;-85
2022/04/22 00:41:32;;;;;;;10.88;6.78;;;6.40;99.90;;;;;;5134091;27;19907;-85
2022/04/22 00:43:57;;;;;;;;;;;6.30;99.90;;;;;;5117948;27;20027;-84
2022/04/22 00:46:23;;;;;;;11.65;6.88;;;6.40;99.90;;;;;;5136270;27;19907;-84
2022/04/22 00:48:48;;;;;;;10.52;6.75;;;6.40;99.70;;;;;;5116623;27;20483;-82
2022/04/22 00:51:16;;;;;;;11.90;7.97;;;6.50;99.70;;;;;;5117217;27;20084;-85
2022/04/22 00:53:45;;;;;;;13.07;7.38;;;6.50;99.20;;;;;;5117621;27;20043;-84
2022/04/22 00:56:11;;;;;;;17.98;9.07;;;6.50;99.00;;;;;;5135959;27;20029;-84
2022/04/22 00:58:40;;;;;;;20.55;10.25;;;6.40;99.00;;;;;;5136144;27;20023;-83
2022/04/22 01:01:06;;;;;;;14.43;7.93;;;6.40;99.30;;;;;;5117703;27;20118;-85
2022/04/22 01:03:32;;;;;;;13.65;7.78;;;6.30;99.90;;;;;;5117433;27;20088;-85
2022/04/22 01:11:34;;;;;;;12.68;8.27;;;6.20;99.90;;;;;;5135991;27;20029;-84
2022/04/22 01:14:00;;;;;;;11.30;7.60;;;6.20;99.90;;;;;;5117324;27;20043;-85
2022/04/22 01:16:26;;;;;;;12.30;7.25;;;6.30;99.90;;;;;;5117032;27;20441;-84
2022/04/22 01:18:52;;;;;;;17.08;8.30;;;6.20;99.90;;;;;;5117054;27;20037;-84
2022/04/22 01:21:19;;;;;;;56.10;18.80;;;6.20;99.90;;;;;;5116817;27;20023;-84
2022/04/22 01:23:44;;;;;;;21.50;8.82;;;6.20;99.90;;;;;;5117069;27;20022;-84
2022/04/22 01:26:12;;;;;;;12.07;7.88;;;6.30;99.90;;;;;;5116966;27;20023;-83
2022/04/22 01:28:38;;;;;;;10.52;7.85;;;6.20;99.90;;;;;;5135088;27;20105;-84
2022/04/22 01:31:04;;;;;;;11.32;7.82;;;6.10;99.90;;;;;;5115640;27;20043;-82
2022/04/22 01:33:30;;;;;;;12.15;6.78;;;6.10;99.90;;;;;;5115064;27;20630;-82
2022/04/22 01:35:55;;;;;;;10.15;6.72;;;6.10;99.90;;;;;;5113925;27;20600;-80
2022/04/22 01:38:21;;;;;;;11.85;7.10;;;6.20;99.90;;;;;;5114839;27;20439;-82
2022/04/22 01:40:47;;;;;;;;;;;6.10;99.90;;;;;;5116787;27;20031;-83
2022/04/22 01:43:13;;;;;;;13.00;6.72;;;6.20;99.90;;;;;;5132575;27;20108;-83
2022/04/22 01:45:38;;;;;;;10.05;5.75;;;6.20;99.90;;;;;;5133963;27;20031;-82
2022/04/22 01:48:04;;;;;;;;;;;6.20;99.90;;;;;;5133985;27;20027;-83
2022/04/22 01:50:29;;;;;;;10.77;6.75;;;6.20;99.90;;;;;;5115112;27;19911;-82
2022/04/22 01:52:55;;;;;;;9.80;6.25;;;6.20;99.90;;;;;;5095269;28;20063;-83
2022/04/22 01:55:21;;;;;;;;;;;6.20;99.90;;;;;;5091362;28;20038;-80
2022/04/22 01:57:46;;;;;;;10.15;6.50;;;6.20;99.90;;;;;;5092107;28;19955;-84
2022/04/22 02:00:12;;;;;;;;;;;6.20;99.90;;;;;;5092576;28;20024;-85
2022/04/22 02:02:38;;;;;;;9.75;7.00;;;6.20;99.90;;;;;;5092722;28;19904;-85
2022/04/22 02:05:05;;;;;;;9.55;7.18;;;6.20;99.90;;;;;;5092732;28;20085;-86
2022/04/22 02:07:31;;;;;;;10.82;6.25;;;6.20;99.90;;;;;;5095628;28;20063;-86
2022/04/22 02:09:57;;;;;;;;;;;6.20;99.90;;;;;;5094597;28;20044;-85
2022/04/22 02:12:23;;;;;;;9.35;6.75;;;6.20;99.90;;;;;;5093091;28;20432;-83
2022/04/22 02:14:49;;;;;;;;;;;6.30;99.90;;;;;;5090361;28;20028;-81
2022/04/22 02:17:14;;;;;;;11.63;5.68;;;6.30;99.90;;;;;;5090142;28;20412;-82
2022/04/22 02:19:40;;;;;;;10.48;5.85;;;6.40;99.90;;;;;;5091557;28;20059;-82
2022/04/22 02:22:07;;;;;;;6.20;4.95;;;6.50;99.90;;;;;;5089814;28;20035;-83
2022/04/22 02:24:32;;;;;;;9.50;4.93;;;6.60;99.90;;;;;;5091219;28;20576;-82
2022/04/22 02:29:42;;;;;;;7.95;4.63;;;6.80;99.90;;;;;;5091352;28;20053;-83
2022/04/22 02:32:08;;;;;;;7.93;4.95;;;7.00;99.10;;;;;;5089675;28;20024;-82
2022/04/22 02:34:34;;;;;;;6.93;5.05;;;7.10;97.90;;;;;;5091858;28;20484;-83
2022/04/22 02:36:59;;;;;;;10.48;5.22;;;7.20;97.70;;;;;;5091743;28;20031;-83
2022/04/22 02:39:26;;;;;;;8.52;4.85;;;7.20;97.30;;;;;;5090338;28;20121;-83
2022/04/22 02:47:20;;;;;;;8.98;4.72;;;7.50;94.50;;;;;;5090976;28;20095;-82
2022/04/22 02:49:46;;;;;;;7.88;5.10;;;7.50;94.80;;;;;;5089487;28;20028;-82
2022/04/22 02:52:12;;;;;;;;;;;7.40;94.40;;;;;;5089702;28;20048;-82
2022/04/22 02:54:38;;;;;;;9.48;5.40;;;7.40;94.50;;;;;;5090412;28;19998;-82
2022/04/22 02:57:05;;;;;;;10.48;5.75;;;7.40;94.80;;;;;;5089791;28;20548;-83
2022/04/22 02:59:31;;;;;;;11.65;6.57;;;7.30;95.70;;;;;;5089563;28;20047;-82
2022/04/22 03:01:56;;;;;;;;;;;7.10;96.70;;;;;;5090474;28;20016;-82
2022/04/22 03:04:22;;;;;;;9.40;6.28;;;7.10;96.40;;;;;;5091480;28;20002;-84
2022/04/22 03:06:48;;;;;;;;;;;7.10;96.60;;;;;;5091870;28;20035;-84
2022/04/22 03:09:14;;;;;;;9.18;4.57;;;7.20;95.80;;;;;;5090313;28;20382;-83
2022/04/22 03:11:39;;;;;;;;;;;7.20;95.80;;;;;;5090861;28;20077;-82
2022/04/22 03:14:05;;;;;;;9.60;6.80;;;7.20;96.00;;;;;;5088731;28;19966;-84
2022/04/22 03:16:31;;;;;;;;;;;7.20;96.30;;;;;;5089909;28;20020;-84
2022/04/22 03:18:56;;;;;;;12.73;8.57;;;7.20;96.90;;;;;;5089948;28;19961;-84
2022/04/22 03:21:22;;;;;;;16.27;7.82;;;7.20;97.20;;;;;;5089937;28;20028;-83
2022/04/22 03:23:49;;;;;;;14.98;8.32;;;7.10;97.50;;;;;;5088876;28;20032;-82
2022/04/22 03:26:15;;;;;;;16.67;7.07;;;7.00;97.70;;;;;;5088993;28;20020;-82
2022/04/22 03:28:41;;;;;;;10.35;7.13;;;7.00;98.60;;;;;;5088456;28;20039;-82
2022/04/22 03:31:07;;;;;;;13.18;7.20;;;6.90;99.30;;;;;;5091861;28;20370;-85
2022/04/22 03:33:33;;;;;;;;;;;6.90;98.50;;;;;;5091356;28;20031;-84
2022/04/22 03:35:59;;;;;;;10.57;6.70;;;7.00;98.70;;;;;;5090484;28;20284;-84
2022/04/22 03:38:24;;;;;;;;;;;7.00;99.10;;;;;;5090935;28;20028;-84
2022/04/22 03:40:52;;;;;;;11.05;7.05;;;7.00;98.70;;;;;;5090147;28;19913;-84
2022/04/22 03:43:19;;;;;;;10.00;7.00;;;7.10;98.90;;;;;;5090463;28;20028;-84
2022/04/22 03:45:45;;;;;;;12.15;6.80;;;7.10;97.90;;;;;;5090565;28;20028;-84
2022/04/22 03:48:13;;;;;;;11.02;7.03;;;7.30;97.30;;;;;;5091774;28;20024;-83
2022/04/22 03:50:39;;;;;;;12.88;7.45;;;7.40;95.80;;;;;;5090550;28;20032;-84
2022/04/22 03:53:05;;;;;;;;;;;7.40;95.70;;;;;;5090766;28;20048;-84
2022/04/22 03:55:32;;;;;;;9.07;6.53;;;7.60;94.40;;;;;;5090674;28;20379;-84
2022/04/22 03:58:12;;;;;;;20.33;8.23;;;7.60;93.90;;;;;;5090547;28;20130;-83
2022/04/22 04:00:42;;;;;;;9.73;6.00;;;7.70;94.40;;;;;;5090275;28;20040;-84
2022/04/22 04:03:16;;;;;;;14.57;7.82;;;7.80;92.70;;;;;;5089907;28;20038;-84
2022/04/22 04:05:51;;;;;;;17.20;6.70;;;7.90;93.40;;;;;;5091866;28;20074;-84
2022/04/22 04:08:19;;;;;;;9.10;5.70;;;8.00;93.60;;;;;;5094228;28;20043;-83
2022/04/22 04:16:14;;;;;;;7.15;4.63;;;8.30;89.90;;;;;;5095813;28;20119;-84
2022/04/22 04:18:40;;;;;;;6.63;4.55;;;8.40;88.10;;;;;;5096364;28;20465;-85
2022/04/22 04:23:53;;;;;;;8.98;5.05;;;8.60;82.90;;;;;;5094799;28;20077;-84
2022/04/22 04:26:21;;;;;;;9.02;5.60;;;8.60;83.50;;;;;;5092871;28;20063;-82
2022/04/22 04:28:48;;;;;;;8.45;5.20;;;8.70;83.80;;;;;;5091318;28;20024;-83
2022/04/22 04:31:15;;;;;;;10.90;5.15;;;8.80;82.70;;;;;;5092069;28;20040;-83
2022/04/22 04:33:41;;;;;;;12.43;5.63;;;8.90;84.00;;;;;;5093300;28;20039;-84
2022/04/22 04:36:10;;;;;;;8.85;4.60;;;9.00;81.60;;;;;;5094859;28;20095;-83
2022/04/22 04:38:41;;;;;;;7.00;4.65;;;9.00;81.70;;;;;;5091748;28;20028;-83
2022/04/22 04:41:08;;;;;;;7.90;5.18;;;9.00;81.40;;;;;;5093056;28;20028;-83
2022/04/22 04:43:35;;;;;;;5.85;4.38;;;9.10;83.00;;;;;;5091453;28;20058;-81
2022/04/22 04:46:01;;;;;;;9.48;5.50;;;9.10;82.90;;;;;;5091045;28;20055;-82
2022/04/22 04:48:27;;;;;;;9.05;5.57;;;9.10;83.80;;;;;;5093369;28;20480;-84
2022/04/22 04:50:55;;;;;;;9.07;5.72;;;9.10;83.20;;;;;;5092954;28;20048;-83
2022/04/22 04:53:23;;;;;;;10.63;5.20;;;9.30;82.80;;;;;;5092301;28;20055;-83
2022/04/22 04:55:50;;;;;;;7.25;4.38;;;9.30;80.90;;;;;;5092731;28;20060;-84
2022/04/22 04:58:16;;;;;;;7.85;4.95;;;9.50;79.70;;;;;;5092640;28;20055;-83
2022/04/22 05:00:44;;;;;;;13.48;5.75;;;9.50;79.00;;;;;;5092674;28;20059;-85
2022/04/22 05:03:11;;;;;;;7.63;5.75;;;9.70;76.10;;;;;;5093546;28;20027;-85
2022/04/22 05:05:37;;;;;;;8.70;5.53;;;9.90;73.90;;;;;;5094306;28;20023;-86
2022/04/22 05:08:04;;;;;;;8.05;5.85;;;10.10;72.00;;;;;;5093390;28;20032;-84
2022/04/22 05:10:31;;;;;;;9.65;5.30;;;10.20;70.40;;;;;;5093237;28;20024;-82
2022/04/22 05:12:57;;;;;;;9.85;5.93;;;10.40;68.90;;;;;;5090024;28;20392;-81
2022/04/22 05:15:24;;;;;;;10.30;5.90;;;10.60;67.50;;;;;;5090124;28;20801;-82
2022/04/22 05:17:51;;;;;;;13.95;6.13;;;10.90;66.40;;;;;;5091383;28;20778;-81
2022/04/22 05:20:19;;;;;;;13.82;7.25;;;11.10;64.70;;;;;;5090361;28;20066;-80
2022/04/22 05:22:46;;;;;;;13.65;6.25;;;11.40;62.90;;;;;;5090328;28;20028;-82
2022/04/22 05:25:13;;;;;;;8.73;6.40;;;11.60;62.20;;;;;;5090179;28;20020;-81
2022/04/22 05:27:39;;;;;;;11.05;6.80;;;11.70;60.40;;;;;;5090412;28;20054;-82
2022/04/22 05:32:50;;;;;;;10.95;6.95;;;12.00;59.00;;;;;;5092203;28;19926;-82
2022/04/22 05:35:16;;;;;;;;;;;12.00;58.50;;;;;;5091132;28;20039;-82
2022/04/22 05:37:45;;;;;;;10.90;6.80;;;11.90;58.60;;;;;;5090449;28;19945;-82
2022/04/22 05:40:13;;;;;;;14.15;7.20;;;12.00;58.50;;;;;;5090377;28;20028;-83
2022/04/22 05:42:39;;;;;;;12.70;6.35;;;11.90;58.80;;;;;;5090000;28;20446;-84
2022/04/22 05:45:09;;;;;;;;;;;11.70;59.60;;;;;;5090421;28;20393;-83
2022/04/22 05:47:35;;;;;;;13.10;6.68;;;11.80;59.10;;;;;;5090613;28;19908;-83
2022/04/22 05:50:01;;;;;;;9.20;5.82;;;11.90;58.60;;;;;;5092280;28;20099;-81
2022/04/22 05:52:28;;;;;;;10.88;6.40;;;11.90;58.50;;;;;;5092249;28;20052;-83
2022/04/22 05:54:54;;;;;;;14.73;6.80;;;11.90;58.50;;;;;;5089897;28;20600;-83
2022/04/22 05:57:20;;;;;;;;;;;12.00;58.10;;;;;;5092218;28;20024;-82
2022/04/22 05:59:46;;;;;;;12.80;8.02;;;11.90;57.50;;;;;;5090618;28;19908;-82
2022/04/22 06:02:12;;;;;;;;;;;12.00;57.70;;;;;;5090415;28;20114;-83
2022/04/22 06:04:37;;;;;;;11.07;7.25;;;12.00;57.40;;;;;;5089960;28;19908;-81
2022/04/22 06:07:03;;;;;;;10.05;6.90;;;11.90;57.40;;;;;;5091842;28;20131;-86
2022/04/22 06:12:13;;;;;;;18.05;7.95;;;11.90;57.70;;;;;;5092165;28;19976;-85
2022/04/22 06:14:39;;;;;;;;;;;12.00;57.30;;;;;;5093886;28;20512;-88
2022/04/22 06:17:05;;;;;;;13.05;8.07;;;12.10;56.80;;;;;;5093266;28;19991;-87
2022/04/22 06:19:31;;;;;;;;;;;12.00;57.30;;;;;;5094282;28;20073;-88
2022/04/22 06:21:57;;;;;;;9.35;6.82;;;12.00;57.10;;;;;;5094179;28;19908;-86
2022/04/22 06:24:22;;;;;;;;;;;12.20;56.90;;;;;;5096944;28;20036;-88
2022/04/22 06:26:48;;;;;;;11.98;6.88;;;12.10;57.20;;;;;;5096196;28;19929;-86
2022/04/22 06:29:14;;;;;;;11.98;6.47;;;12.20;56.90;;;;;;5097278;28;20028;-87
2022/04/22 06:31:40;;;;;;;;;;;12.00;57.10;;;;;;5099861;28;20031;-89
2022/04/22 06:34:06;;;;;;;14.77;7.72;;;12.00;57.20;;;;;;5099956;28;19919;-86
2022/04/22 06:36:32;;;;;;;;;;;12.00;57.90;;;;;;5097930;28;20028;-87
2022/04/22 06:38:58;;;;;;;17.48;7.47;;;12.00;57.20;;;;;;5077850;28;20043;-87
2022/04/22 06:46:57;;;;;;;10.02;6.80;;;12.20;55.60;;;;;;5085381;28;20160;-86
2022/04/22 06:49:23;;;;;;;13.27;6.78;;;12.10;56.00;;;;;;5089219;28;20051;-86
2022/04/22 06:51:50;;;;;;;8.73;6.55;;;12.10;56.20;;;;;;5076925;28;20063;-87
2022/04/22 06:54:16;;;;;;;13.60;7.47;;;11.90;56.50;;;;;;5092982;28;20063;-87
2022/04/22 06:56:42;;;;;;;;;;;12.00;56.20;;;;;;5093235;28;20024;-87
2022/04/22 06:59:11;;;;;;;11.85;7.45;;;11.90;56.60;;;;;;5089627;28;20364;-85
2022/04/22 07:01:37;;;;;;;16.33;6.93;;;11.80;57.10;;;;;;5091726;28;20118;-84
2022/04/22 07:04:03;;;;;;;;;;;11.90;57.50;;;;;;5092856;28;20099;-85
2022/04/22 07:06:29;;;;;;;10.20;7.55;;;12.00;56.80;;;;;;5091687;28;19904;-87
2022/04/22 07:08:55;;;;;;;14.20;8.15;;;12.00;56.50;;;;;;5091165;28;20024;-86
2022/04/22 07:11:24;;;;;;;;;;;12.10;56.40;;;;;;5091597;28;20027;-86
2022/04/22 07:13:51;;;;;;;13.20;7.25;;;12.10;56.10;;;;;;5091419;28;20004;-84
2022/04/22 07:16:20;;;;;;;17.88;7.78;;;12.00;56.50;;;;;;5090955;28;20036;-84
2022/04/22 07:18:46;;;;;;;14.98;7.05;;;12.20;56.20;;;;;;5090231;28;20027;-85
2022/04/22 07:21:13;;;;;;;11.40;7.30;;;12.20;55.80;;;;;;5090566;28;20024;-85
2022/04/22 07:23:38;;;;;;;;;;;12.20;55.60;;;;;;5090567;28;20024;-85
2022/04/22 07:26:09;;;;;;;11.32;7.43;;;12.30;55.80;;;;;;5091008;28;20659;-88
2022/04/22 07:28:37;;;;;;;11.57;7.90;;;12.30;55.80;;;;;;5092188;28;20058;-85
2022/04/22 07:31:03;;;;;;;11.65;7.40;;;12.30;55.70;;;;;;5090772;28;20024;-83
2022/04/22 07:33:33;;;;;;;14.13;7.22;;;12.40;54.90;;;;;;5089667;28;20129;-82
2022/04/22 07:35:59;;;;;;;16.00;7.88;;;12.50;55.00;;;;;;5091154;28;20559;-87
2022/04/22 07:38:25;;;;;;;10.93;6.43;;;12.50;55.60;;;;;;5091688;28;20488;-88
2022/04/22 07:40:51;;;;;;;;;;;12.70;55.00;;;;;;5090638;28;20039;-86
2022/04/22 07:48:52;;;;;;;;;;;12.40;54.30;;;;;;5091370;28;20090;-84
2022/04/22 07:51:18;;;;;;;11.27;7.55;;;12.30;55.00;;;;;;5089182;28;19961;-83
2022/04/22 07:53:43;;;;;;;;;;;12.30;55.40;;;;;;5130019;28;20059;-83
2022/04/22 07:56:09;;;;;;;10.10;6.20;;;12.20;55.80;;;;;;5110592;28;19995;-82
2022/04/22 07:58:34;;;;;;;;;;;12.00;56.20;;;;;;5130457;28;20027;-82
2022/04/22 08:01:00;;;;;;;11.70;7.28;;;12.10;56.30;;;;;;5129870;28;19922;-83
2022/04/22 08:03:26;;;;;;;;;;;12.00;56.60;;;;;;5114001;28;20027;-87
2022/04/22 08:05:52;;;;;;;15.93;7.13;;;12.00;56.70;;;;;;5114703;28;19907;-85
2022/04/22 08:08:17;;;;;;;;;;;12.00;56.10;;;;;;5113354;28;20514;-85
2022/04/22 08:10:44;;;;;;;10.82;5.60;;;12.20;55.80;;;;;;5113189;28;20409;-84
2022/04/22 08:13:10;;;;;;;9.95;6.90;;;12.10;55.70;;;;;;5113048;28;20070;-83
2022/04/22 08:15:36;;;;;;;;;;;12.20;55.00;;;;;;5113107;28;20055;-83
2022/04/22 08:18:03;;;;;;;15.57;6.90;;;12.10;55.60;;;;;;5128936;28;19925;-82
2022/04/22 08:20:31;;;;;;;10.90;6.57;;;12.20;55.50;;;;;;5111702;28;20087;-84
2022/04/22 08:22:58;;;;;;;13.13;6.53;;;12.20;55.40;;;;;;5130110;28;20050;-82
2022/04/22 08:25:25;;;;;;;11.38;7.18;;;12.30;54.90;;;;;;5111047;28;20080;-82
2022/04/22 08:27:51;;;;;;;11.80;8.00;;;12.50;54.40;;;;;;5130676;28;20134;-82
2022/04/22 08:30:17;;;;;;;;;;;12.50;54.40;;;;;;5112922;28;20027;-82
2022/04/22 08:32:43;;;;;;;10.40;6.55;;;12.40;54.40;;;;;;5131018;28;19931;-84
2022/04/22 08:35:08;;;;;;;;;;;12.40;54.20;;;;;;5113396;28;20060;-85
2022/04/22 08:37:34;;;;;;;12.48;6.18;;;12.40;55.20;;;;;;5113152;28;20260;-82
2022/04/22 08:40:00;;;;;;;9.93;6.47;;;12.30;55.20;;;;;;5114620;28;20039;-85
2022/04/22 08:42:26;;;;;;;;;;;12.20;55.50;;;;;;5113565;28;20484;-84
2022/04/22 08:44:53;;;;;;;11.68;6.60;;;12.30;55.20;;;;;;5113415;28;19908;-86
2022/04/22 08:50:09;;;;;;;11.25;7.95;;;12.20;55.10;;;;;;5131192;28;20423;-85
2022/04/22 08:52:36;;;;;;;11.80;6.72;;;12.20;55.20;;;;;;5115666;27;20411;-85
2022/04/22 08:55:05;;;;;;;11.77;6.30;;;12.20;56.00;;;;;;5135863;27;20060;-85
2022/04/22 08:57:31;;;;;;;11.57;6.13;;;12.30;55.60;;;;;;5117542;27;20019;-85
2022/04/22 08:59:58;;;;;;;;;;;12.40;56.00;;;;;;5118453;27;20487;-85
2022/04/22 09:02:24;;;;;;;13.55;5.50;;;12.40;56.00;;;;;;5136176;27;19914;-85
2022/04/22 09:04:50;;;;;;;8.85;6.63;;;12.40;57.10;;;;;;5116700;27;20644;-83
2022/04/22 09:07:18;;;;;;;;;;;12.30;57.60;;;;;;5116418;27;20085;-82
2022/04/22 09:09:50;;;;;;;11.57;6.53;;;12.30;57.90;;;;;;5134148;27;20009;-82
2022/04/22 09:12:19;;;;;;;12.68;6.00;;;12.20;58.40;;;;;;5115195;27;20025;-82
2022/04/22 09:14:56;;;;;;;11.25;6.00;;;12.20;58.50;;;;;;5112603;27;20046;-85
2022/04/22 09:17:23;;;;;;;11.48;6.07;;;12.20;59.20;;;;;;5117449;27;20452;-84
2022/04/22 09:19:51;;;;;;;10.60;7.50;;;12.20;59.10;;;;;;5135956;27;20076;-86
2022/04/22 09:22:21;;;;;;;11.45;7.80;;;12.40;59.80;;;;;;5117085;27;20027;-86
2022/04/22 09:24:50;;;;;;;9.38;6.15;;;12.30;60.40;;;;;;5117860;27;20031;-84
2022/04/22 09:27:17;;;;;;;11.07;6.50;;;12.30;62.10;;;;;;5117540;27;20023;-86
2022/04/22 09:29:51;;;;;;;10.10;6.70;;;12.30;62.50;;;;;;5116726;27;20030;-85
2022/04/22 09:32:24;;;;;;;12.48;6.05;;;12.20;63.90;;;;;;5117124;27;20098;-85
2022/04/22 09:34:50;;;;;;;15.25;5.97;;;12.20;65.40;;;;;;5105819;28;20051;-85
2022/04/22 09:42:52;;;;;;;9.27;5.32;;;12.50;66.30;;;;;;5114575;28;20279;-84
2022/04/22 09:45:17;;;;;;;;;;;12.80;66.00;;;;;;5096324;28;20023;-84
2022/04/22 09:47:54;;;;;;;12.07;7.28;;;13.00;63.30;;;;;;5096314;28;19942;-83
2022/04/22 09:50:39;;;;;;;10.85;6.35;;;13.30;63.20;;;;;;5096576;28;20509;-84
2022/04/22 09:53:06;;;;;;;12.77;7.03;;;13.40;62.00;;;;;;5095453;28;20058;-85
2022/04/22 09:55:36;;;;;;;10.45;7.05;;;13.50;61.10;;;;;;5095969;28;20079;-84
2022/04/22 09:58:02;;;;;;;8.65;5.80;;;13.70;61.30;;;;;;5095764;28;20026;-84
2022/04/22 10:00:32;;;;;;;9.35;7.00;;;13.80;59.60;;;;;;5095989;28;20027;-84
2022/04/22 10:02:59;;;;;;;11.20;6.70;;;13.90;58.80;;;;;;5095178;28;20023;-86
2022/04/22 10:05:26;;;;;;;;;;;14.00;56.90;;;;;;5096696;28;20081;-83
2022/04/22 10:07:52;;;;;;;;;;;14.10;57.10;;;;;;5096886;28;19948;-85
2022/04/22 10:10:23;;;;;;;12.55;6.68;;;14.00;57.80;;;;;;5095679;28;19911;-84
2022/04/22 10:12:52;;;;;;;8.52;5.80;;;13.90;56.40;;;;;;5096180;28;20482;-85
2022/04/22 10:15:19;;;;;;;10.43;6.82;;;13.90;55.60;;;;;;5114864;28;20039;-84
2022/04/22 10:17:47;;;;;;;8.57;6.00;;;13.50;55.80;;;;;;5096240;28;20080;-86
2022/04/22 10:20:13;;;;;;;9.10;5.82;;;13.30;56.90;;;;;;5096028;28;20067;-85
2022/04/22 10:22:39;;;;;;;17.15;6.43;;;13.30;56.90;;;;;;5096073;28;20060;-86
2022/04/22 10:25:07;;;;;;;;;;;13.10;56.20;;;;;;5096663;28;20051;-85
2022/04/22 10:27:34;;;;;;;7.65;5.43;;;12.90;57.10;;;;;;5096435;28;19929;-86
2022/04/22 10:30:01;;;;;;;13.70;5.32;;;12.80;57.20;;;;;;5096038;28;20073;-86
2022/04/22 10:32:27;;;;;;;7.45;5.15;;;12.80;56.50;;;;;;5095876;28;20084;-84
2022/04/22 10:35:01;;;;;;;9.30;5.80;;;12.70;56.90;;;;;;5095563;28;20031;-85
2022/04/22 10:37:28;;;;;;;8.43;5.32;;;12.70;56.60;;;;;;5095910;28;20031;-85
2022/04/22 10:39:59;;;;;;;7.03;5.53;;;12.60;57.70;;;;;;5095011;28;20039;-84
2022/04/22 10:42:34;;;;;;;7.30;4.78;;;12.60;57.30;;;;;;5095280;28;20115;-85
2022/04/22 10:47:47;;;;;;;;;;;12.60;58.00;;;;;;5114538;28;20039;-84
2022/04/22 10:50:39;;;;;;;7.22;4.35;;;12.70;57.00;;;;;;5096313;28;19914;-85
2022/04/22 10:53:08;;;;;;;8.18;4.45;;;12.80;57.00;;;;;;5093670;28;20059;-85
2022/04/22 10:55:42;;;;;;;7.60;5.00;;;12.80;56.60;;;;;;5092686;28;20032;-84
2022/04/22 10:58:14;;;;;;;6.57;3.95;;;12.90;56.40;;;;;;5095917;28;20042;-86
2022/04/22 11:00:42;;;;;;;7.97;4.80;;;13.10;54.80;;;;;;5095992;28;20045;-86
2022/04/22 11:03:22;;;;;;;8.93;4.47;;;13.20;54.60;;;;;;5095670;28;20028;-86
2022/04/22 11:05:54;;;;;;;8.70;4.35;;;13.20;53.70;;;;;;5095740;28;20114;-86
2022/04/22 11:08:31;;;;;;;9.52;5.03;;;13.30;53.20;;;;;;5095664;28;20518;-84
2022/04/22 11:11:01;;;;;;;8.68;3.97;;;13.30;52.40;;;;;;5092363;28;20066;-81
2022/04/22 11:13:29;;;;;;;7.93;4.57;;;13.30;51.20;;;;;;5110147;28;21966;-81
2022/04/22 11:16:12;;;;;;;7.28;5.07;;;13.30;51.20;;;;;;5092997;28;20032;-82
2022/04/22 11:18:40;;;;;;;10.65;4.72;;;13.20;50.80;;;;;;5110387;28;20099;-81
2022/04/22 11:21:32;;;;;;;8.80;4.70;;;13.20;49.90;;;;;;5109697;28;20492;-81
2022/04/22 11:23:58;;;;;;;5.82;4.13;;;13.30;49.80;;;;;;5095190;28;20040;-81
2022/04/22 11:26:23;;;;;;;;;;;13.40;49.20;;;;;;5092036;28;20080;-81
2022/04/22 11:28:49;;;;;;;10.23;5.78;;;13.40;50.30;;;;;;5111651;28;20300;-81
2022/04/22 11:31:15;;;;;;;9.07;4.70;;;13.40;50.40;;;;;;5093269;28;20027;-82
2022/04/22 11:33:41;;;;;;;;;;;13.50;50.50;;;;;;5112330;28;20386;-83
2022/04/22 11:36:07;;;;;;;5.63;4.38;;;13.50;50.90;;;;;;5094084;28;19911;-83
2022/04/22 11:38:33;;;;;;;6.70;4.57;;;13.60;51.30;;;;;;5112519;28;20484;-85
2022/04/22 11:40:58;;;;;;;;;;;13.60;50.60;;;;;;5095006;28;20026;-83
2022/04/22 11:43:28;;;;;;;7.00;3.85;;;13.50;50.50;;;;;;5112353;28;19903;-82
2022/04/22 11:45:54;;;;;;;6.32;3.67;;;13.50;49.40;;;;;;5093904;28;20038;-84
2022/04/22 11:48:21;;;;;;;;;;;13.50;49.00;;;;;;5113208;28;20024;-83
2022/04/22 11:50:47;;;;;;;9.70;3.17;;;13.50;48.30;;;;;;5112351;28;19904;-83
2022/04/22 11:53:22;;;;;;;7.15;3.72;;;13.50;48.00;;;;;;5093955;28;20062;-80
2022/04/22 11:55:49;;;;;;;5.43;3.50;;;13.60;47.80;;;;;;5112635;28;20031;-83
2022/04/22 11:58:16;;;;;;;;;;;13.60;47.40;;;;;;5113726;28;20073;-85
2022/04/22 12:06:18;;;;;;;8.70;4.07;;;13.60;47.90;;;;;;5112168;28;20081;-82
2022/04/22 12:08:51;;;;;;;6.65;3.63;;;13.70;47.50;;;;;;5093101;28;20031;-82
2022/04/22 12:11:16;;;;;;;6.30;4.03;;;13.70;47.40;;;;;;5092974;28;20411;-83
2022/04/22 12:13:42;;;;;;;;;;;13.80;46.80;;;;;;5093222;28;20032;-82
2022/04/22 12:16:08;;;;;;;6.43;3.47;;;13.70;46.20;;;;;;5091544;28;19918;-80
2022/04/22 12:18:34;;;;;;;;;;;13.70;46.50;;;;;;5093086;28;20027;-82
2022/04/22 12:21:00;;;;;;;9.70;3.80;;;13.60;47.00;;;;;;5112023;28;19942;-83
2022/04/22 12:23:33;;;;;;;11.50;4.18;;;13.80;46.70;;;;;;5110719;28;20031;-82
2022/04/22 12:26:00;;;;;;;5.88;3.58;;;13.90;46.20;;;;;;5113651;28;20051;-83
2022/04/22 12:28:26;;;;;;;7.93;4.03;;;14.00;45.60;;;;;;5097215;28;20024;-84
2022/04/22 12:30:51;;;;;;;5.80;3.55;;;14.20;45.50;;;;;;5096419;28;20114;-84
2022/04/22 12:33:18;;;;;;;;;;;14.30;45.60;;;;;;5097716;28;20059;-82
2022/04/22 12:35:45;;;;;;;5.63;3.53;;;14.60;45.80;;;;;;5096654;28;19937;-84
2022/04/22 12:38:13;;;;;;;6.05;3.40;;;14.80;44.90;;;;;;5096242;28;20034;-81
2022/04/22 12:40:49;;;;;;;5.63;3.03;;;15.00;44.20;;;;;;5114122;28;20016;-81
2022/04/22 12:43:32;;;;;;;4.43;2.35;;;15.30;43.70;;;;;;5096909;28;20050;-82
2022/04/22 12:52:09;;;;;;;7.20;3.67;;;15.20;42.30;;;;;;5115265;28;20556;-83
2022/04/22 12:54:37;;;;;;;5.28;3.42;;;15.10;41.90;;;;;;5097587;28;20039;-84
2022/04/22 12:57:05;;;;;;;13.77;3.40;;;15.00;42.30;;;;;;5095231;28;20030;-81
2022/04/22 12:59:52;;;;;;;6.53;3.10;;;15.00;42.00;;;;;;5095699;28;20526;-81
2022/04/22 13:02:21;;;;;;;7.20;3.30;;;14.80;41.70;;;;;;5097277;28;20119;-84
2022/04/22 13:04:51;;;;;;;7.45;3.80;;;14.70;42.00;;;;;;5097434;28;20032;-85
2022/04/22 13:07:17;;;;;;;4.82;2.90;;;14.60;41.60;;;;;;5097155;28;20050;-82
2022/04/22 13:09:42;;;;;;;;;;;14.40;41.80;;;;;;5097994;28;20066;-84
2022/04/22 13:12:08;;;;;;;7.13;3.33;;;14.40;42.40;;;;;;5097764;28;19917;-84
2022/04/22 13:14:34;;;;;;;6.38;3.28;;;14.30;41.90;;;;;;5097063;28;20039;-83
2022/04/22 13:17:01;;;;;;;;;;;14.30;42.20;;;;;;5097938;28;20165;-84
2022/04/22 13:19:27;;;;;;;5.57;3.33;;;14.30;42.60;;;;;;5115028;28;20007;-85
2022/04/22 13:21:52;;;;;;;;;;;14.40;42.00;;;;;;5097571;28;20622;-84
2022/04/22 13:24:18;;;;;;;9.60;3.20;;;14.50;42.80;;;;;;5095370;28;20337;-84
2022/04/22 13:26:44;;;;;;;;;;;14.80;41.40;;;;;;5095879;28;20031;-83
2022/04/22 13:29:09;;;;;;;4.90;2.50;;;14.90;41.40;;;;;;5095151;28;20180;-83
2022/04/22 13:31:35;;;;;;;;;;;15.00;41.20;;;;;;5112582;28;20487;-83
2022/04/22 13:34:03;;;;;;;13.70;2.60;;;15.00;41.10;;;;;;5095792;28;19931;-84
2022/04/22 13:36:30;;;;;;;5.35;3.00;;;14.90;41.40;;;;;;5096439;28;20076;-82
2022/04/22 13:38:56;;;;;;;12.50;3.05;;;14.80;42.10;;;;;;5097373;27;20024;-87
2022/04/22 13:41:21;;;;;;;;;;;14.60;42.50;;;;;;5102539;28;20030;-86
2022/04/22 13:43:47;;;;;;;5.63;3.13;;;14.50;43.10;;;;;;5097931;28;19965;-87
2022/04/22 13:54:25;;;;;;;14.57;3.50;;;14.40;43.00;;;;;;5115216;28;20089;-85
2022/04/22 13:56:51;;;;;;;;;;;14.30;43.30;;;;;;5097727;28;20027;-86
2022/04/22 13:59:16;;;;;;;7.15;3.30;;;14.30;43.40;;;;;;5128806;27;19904;-85
2022/04/22 14:01:42;;;;;;;;;;;14.30;43.70;;;;;;5110377;28;20026;-84
2022/04/22 14:04:08;;;;;;;5.35;3.13;;;14.30;43.90;;;;;;5107389;27;19914;-86
2022/04/22 14:06:34;;;;;;;;;;;14.50;43.80;;;;;;5118015;27;20031;-86
2022/04/22 14:09:01;;;;;;;16.52;4.78;;;14.50;43.10;;;;;;5117313;27;20328;-84
2022/04/22 14:11:28;;;;;;;9.02;3.45;;;14.60;44.10;;;;;;5116748;27;20050;-85